sensor_id;sensor_type;location;lat;lon;timestamp;P1;durP1;ratioP1;P2;durP2;ratioP2
9346;SDS011;4712;50.698;7.164;2022-08-04T00:00:34;4.43;;;2.55;;
9346;SDS011;4712;50.698;7.164;2022-08-04T00:03:10;5.57;;;1.90;;
9346;SDS011;4712;50.698;7.164;2022-08-04T00:05:40;5.15;;;1.95;;
9346;SDS011;4712;50.698;7.164;2022-08-04T00:10:36;3.22;;;2.17;;
9346;SDS011;4712;50.698;7.164;2022-08-04T00:13:03;4.88;;;2.20;;
9346;SDS011;4712;50.698;7.164;2022-08-04T00:15:29;9.05;;;2.30;;
9346;SDS011;4712;50.698;7.164;2022-08-04T00:17:59;5.38;;;2.13;;
9346;SDS011;4712;50.698;7.164;2022-08-04T00:20:31;2.90;;;1.77;;
9346;SDS011;4712;50.698;7.164;2022-08-04T00:22:57;4.47;;;1.90;;
9346;SDS011;4712;50.698;7.164;2022-08-04T00:25:23;8.23;;;2.42;;
9346;SDS011;4712;50.698;7.164;2022-08-04T00:27:49;3.58;;;2.25;;
9346;SDS011;4712;50.698;7.164;2022-08-04T00:30:14;4.35;;;2.33;;
9346;SDS011;4712;50.698;7.164;2022-08-04T00:32:40;4.50;;;2.17;;
9346;SDS011;4712;50.698;7.164;2022-08-04T00:35:05;5.65;;;2.03;;
9346;SDS011;4712;50.698;7.164;2022-08-04T00:37:33;5.30;;;2.17;;
9346;SDS011;4712;50.698;7.164;2022-08-04T00:39:59;3.10;;;2.03;;
9346;SDS011;4712;50.698;7.164;2022-08-04T00:42:33;6.90;;;1.85;;
9346;SDS011;4712;50.698;7.164;2022-08-04T00:47:43;7.07;;;2.60;;
9346;SDS011;4712;50.698;7.164;2022-08-04T00:50:17;4.20;;;2.28;;
9346;SDS011;4712;50.698;7.164;2022-08-04T01:08:27;7.10;;;1.98;;
9346;SDS011;4712;50.698;7.164;2022-08-04T01:16:09;9.88;;;2.53;;
9346;SDS011;4712;50.698;7.164;2022-08-04T01:18:45;3.70;;;2.00;;
9346;SDS011;4712;50.698;7.164;2022-08-04T01:26:51;8.43;;;2.63;;
9346;SDS011;4712;50.698;7.164;2022-08-04T01:29:19;4.60;;;2.03;;
9346;SDS011;4712;50.698;7.164;2022-08-04T01:31:55;8.63;;;2.20;;
9346;SDS011;4712;50.698;7.164;2022-08-04T01:34:23;3.72;;;2.15;;
9346;SDS011;4712;50.698;7.164;2022-08-04T01:36:56;3.88;;;2.33;;
9346;SDS011;4712;50.698;7.164;2022-08-04T01:39:22;5.88;;;2.15;;
9346;SDS011;4712;50.698;7.164;2022-08-04T01:42:07;4.50;;;2.05;;
9346;SDS011;4712;50.698;7.164;2022-08-04T01:44:32;4.35;;;2.40;;
9346;SDS011;4712;50.698;7.164;2022-08-04T01:47:00;4.85;;;2.17;;
9346;SDS011;4712;50.698;7.164;2022-08-04T01:49:27;5.05;;;2.13;;
9346;SDS011;4712;50.698;7.164;2022-08-04T01:51:52;4.07;;;1.90;;
9346;SDS011;4712;50.698;7.164;2022-08-04T01:54:18;6.13;;;2.22;;
9346;SDS011;4712;50.698;7.164;2022-08-04T01:56:45;3.95;;;1.90;;
9346;SDS011;4712;50.698;7.164;2022-08-04T01:59:10;5.38;;;1.98;;
9346;SDS011;4712;50.698;7.164;2022-08-04T02:01:39;3.10;;;2.00;;
9346;SDS011;4712;50.698;7.164;2022-08-04T02:04:04;6.00;;;1.57;;
9346;SDS011;4712;50.698;7.164;2022-08-04T02:09:19;4.45;;;1.60;;
9346;SDS011;4712;50.698;7.164;2022-08-04T02:11:54;4.50;;;1.83;;
9346;SDS011;4712;50.698;7.164;2022-08-04T02:14:26;3.33;;;1.83;;
9346;SDS011;4712;50.698;7.164;2022-08-04T02:17:49;7.15;;;1.70;;
9346;SDS011;4712;50.698;7.164;2022-08-04T02:20:05;8.88;;;1.92;;
9346;SDS011;4712;50.698;7.164;2022-08-04T02:22:32;3.42;;;1.65;;
9346;SDS011;4712;50.698;7.164;2022-08-04T02:25:02;5.18;;;2.30;;
9346;SDS011;4712;50.698;7.164;2022-08-04T02:27:29;10.25;;;1.70;;
9346;SDS011;4712;50.698;7.164;2022-08-04T02:30:02;3.78;;;2.10;;
9346;SDS011;4712;50.698;7.164;2022-08-04T02:32:29;4.03;;;1.90;;
9346;SDS011;4712;50.698;7.164;2022-08-04T02:37:20;5.45;;;1.83;;
9346;SDS011;4712;50.698;7.164;2022-08-04T02:39:46;4.57;;;2.03;;
9346;SDS011;4712;50.698;7.164;2022-08-04T02:42:16;3.08;;;1.80;;
9346;SDS011;4712;50.698;7.164;2022-08-04T02:44:41;3.95;;;2.05;;
9346;SDS011;4712;50.698;7.164;2022-08-04T02:47:07;2.33;;;1.77;;
9346;SDS011;4712;50.698;7.164;2022-08-04T02:49:36;4.00;;;2.15;;
9346;SDS011;4712;50.698;7.164;2022-08-04T02:52:02;2.45;;;2.00;;
9346;SDS011;4712;50.698;7.164;2022-08-04T02:54:31;3.90;;;2.10;;
9346;SDS011;4712;50.698;7.164;2022-08-04T02:56:57;2.67;;;2.05;;
9346;SDS011;4712;50.698;7.164;2022-08-04T02:59:24;4.97;;;2.20;;
9346;SDS011;4712;50.698;7.164;2022-08-04T03:01:50;5.50;;;2.20;;
9346;SDS011;4712;50.698;7.164;2022-08-04T03:12:05;2.20;;;1.63;;
9346;SDS011;4712;50.698;7.164;2022-08-04T03:20:07;2.80;;;2.17;;
9346;SDS011;4712;50.698;7.164;2022-08-04T03:22:58;4.45;;;2.40;;
9346;SDS011;4712;50.698;7.164;2022-08-04T03:28:00;5.82;;;2.40;;
9346;SDS011;4712;50.698;7.164;2022-08-04T03:53:50;3.55;;;2.20;;
9346;SDS011;4712;50.698;7.164;2022-08-04T03:56:38;5.70;;;2.35;;
9346;SDS011;4712;50.698;7.164;2022-08-04T04:01:52;6.55;;;2.20;;
9346;SDS011;4712;50.698;7.164;2022-08-04T04:07:17;3.53;;;2.50;;
9346;SDS011;4712;50.698;7.164;2022-08-04T04:10:02;4.97;;;2.53;;
9346;SDS011;4712;50.698;7.164;2022-08-04T04:30:24;3.88;;;2.25;;
9346;SDS011;4712;50.698;7.164;2022-08-04T04:41:04;5.88;;;2.53;;
9346;SDS011;4712;50.698;7.164;2022-08-04T04:43:40;3.67;;;2.53;;
9346;SDS011;4712;50.698;7.164;2022-08-04T04:46:29;4.00;;;2.50;;
9346;SDS011;4712;50.698;7.164;2022-08-04T04:51:50;5.45;;;2.30;;
9346;SDS011;4712;50.698;7.164;2022-08-04T04:54:27;2.90;;;2.22;;
9346;SDS011;4712;50.698;7.164;2022-08-04T04:59:34;7.93;;;2.45;;
9346;SDS011;4712;50.698;7.164;2022-08-04T05:12:05;9.07;;;3.13;;
9346;SDS011;4712;50.698;7.164;2022-08-04T05:14:35;5.50;;;2.63;;
9346;SDS011;4712;50.698;7.164;2022-08-04T05:17:04;7.35;;;2.38;;
9346;SDS011;4712;50.698;7.164;2022-08-04T05:22:22;6.40;;;2.40;;
9346;SDS011;4712;50.698;7.164;2022-08-04T05:27:15;4.03;;;2.15;;
9346;SDS011;4712;50.698;7.164;2022-08-04T05:29:45;7.20;;;2.53;;
9346;SDS011;4712;50.698;7.164;2022-08-04T05:32:14;4.93;;;2.17;;
9346;SDS011;4712;50.698;7.164;2022-08-04T05:34:57;5.10;;;2.05;;
9346;SDS011;4712;50.698;7.164;2022-08-04T05:39:51;6.57;;;2.20;;
9346;SDS011;4712;50.698;7.164;2022-08-04T05:42:17;5.57;;;2.10;;
9346;SDS011;4712;50.698;7.164;2022-08-04T05:44:43;5.75;;;2.10;;
9346;SDS011;4712;50.698;7.164;2022-08-04T05:47:09;5.68;;;2.33;;
9346;SDS011;4712;50.698;7.164;2022-08-04T05:49:36;7.00;;;2.70;;
9346;SDS011;4712;50.698;7.164;2022-08-04T05:52:02;2.80;;;2.10;;
9346;SDS011;4712;50.698;7.164;2022-08-04T05:54:29;4.32;;;2.80;;
9346;SDS011;4712;50.698;7.164;2022-08-04T05:56:55;5.43;;;2.38;;
9346;SDS011;4712;50.698;7.164;2022-08-04T05:59:21;6.47;;;3.90;;
9346;SDS011;4712;50.698;7.164;2022-08-04T06:01:49;2.97;;;2.35;;
9346;SDS011;4712;50.698;7.164;2022-08-04T06:04:15;7.82;;;2.30;;
9346;SDS011;4712;50.698;7.164;2022-08-04T06:06:41;6.05;;;2.65;;
9346;SDS011;4712;50.698;7.164;2022-08-04T06:09:08;6.25;;;2.53;;
9346;SDS011;4712;50.698;7.164;2022-08-04T06:11:35;4.50;;;2.40;;
9346;SDS011;4712;50.698;7.164;2022-08-04T06:14:02;21.52;;;3.70;;
9346;SDS011;4712;50.698;7.164;2022-08-04T06:16:32;6.13;;;2.60;;
9346;SDS011;4712;50.698;7.164;2022-08-04T06:19:00;5.40;;;2.22;;
9346;SDS011;4712;50.698;7.164;2022-08-04T06:21:27;7.70;;;2.33;;
9346;SDS011;4712;50.698;7.164;2022-08-04T06:23:53;4.38;;;2.33;;
9346;SDS011;4712;50.698;7.164;2022-08-04T06:26:19;8.43;;;2.40;;
9346;SDS011;4712;50.698;7.164;2022-08-04T06:28:48;5.22;;;2.13;;
9346;SDS011;4712;50.698;7.164;2022-08-04T06:31:15;5.85;;;2.70;;
9346;SDS011;4712;50.698;7.164;2022-08-04T06:33:46;6.55;;;2.28;;
9346;SDS011;4712;50.698;7.164;2022-08-04T06:36:12;8.43;;;3.58;;
9346;SDS011;4712;50.698;7.164;2022-08-04T06:38:38;8.30;;;2.35;;
9346;SDS011;4712;50.698;7.164;2022-08-04T06:41:04;6.00;;;2.13;;
9346;SDS011;4712;50.698;7.164;2022-08-04T06:43:33;5.40;;;2.67;;
9346;SDS011;4712;50.698;7.164;2022-08-04T06:45:58;9.32;;;3.38;;
9346;SDS011;4712;50.698;7.164;2022-08-04T06:48:26;5.18;;;2.20;;
9346;SDS011;4712;50.698;7.164;2022-08-04T06:50:52;7.32;;;2.00;;
9346;SDS011;4712;50.698;7.164;2022-08-04T06:53:18;3.97;;;1.92;;
9346;SDS011;4712;50.698;7.164;2022-08-04T06:55:44;9.37;;;2.20;;
9346;SDS011;4712;50.698;7.164;2022-08-04T06:58:09;6.80;;;1.80;;
9346;SDS011;4712;50.698;7.164;2022-08-04T07:00:35;7.03;;;2.58;;
9346;SDS011;4712;50.698;7.164;2022-08-04T07:03:01;3.42;;;2.20;;
9346;SDS011;4712;50.698;7.164;2022-08-04T07:05:27;8.85;;;2.50;;
9346;SDS011;4712;50.698;7.164;2022-08-04T07:07:52;9.13;;;2.53;;
9346;SDS011;4712;50.698;7.164;2022-08-04T07:10:18;5.13;;;1.98;;
9346;SDS011;4712;50.698;7.164;2022-08-04T07:12:45;6.25;;;1.92;;
9346;SDS011;4712;50.698;7.164;2022-08-04T07:15:10;6.32;;;2.10;;
9346;SDS011;4712;50.698;7.164;2022-08-04T07:17:36;6.32;;;2.40;;
9346;SDS011;4712;50.698;7.164;2022-08-04T07:20:02;8.02;;;2.15;;
9346;SDS011;4712;50.698;7.164;2022-08-04T07:22:28;7.00;;;2.40;;
9346;SDS011;4712;50.698;7.164;2022-08-04T07:24:54;3.97;;;2.15;;
9346;SDS011;4712;50.698;7.164;2022-08-04T07:27:20;5.35;;;2.15;;
9346;SDS011;4712;50.698;7.164;2022-08-04T07:29:45;8.10;;;1.90;;
9346;SDS011;4712;50.698;7.164;2022-08-04T07:32:11;6.43;;;2.15;;
9346;SDS011;4712;50.698;7.164;2022-08-04T07:34:37;8.23;;;2.10;;
9346;SDS011;4712;50.698;7.164;2022-08-04T07:37:03;12.65;;;2.35;;
9346;SDS011;4712;50.698;7.164;2022-08-04T07:39:28;7.55;;;2.03;;
9346;SDS011;4712;50.698;7.164;2022-08-04T07:41:56;3.90;;;1.60;;
9346;SDS011;4712;50.698;7.164;2022-08-04T07:44:21;8.43;;;2.15;;
9346;SDS011;4712;50.698;7.164;2022-08-04T07:46:47;5.00;;;1.77;;
9346;SDS011;4712;50.698;7.164;2022-08-04T07:49:12;3.67;;;1.80;;
9346;SDS011;4712;50.698;7.164;2022-08-04T07:51:37;8.75;;;2.10;;
9346;SDS011;4712;50.698;7.164;2022-08-04T07:54:04;5.22;;;2.25;;
9346;SDS011;4712;50.698;7.164;2022-08-04T07:56:35;8.27;;;1.90;;
9346;SDS011;4712;50.698;7.164;2022-08-04T07:59:00;6.97;;;2.10;;
9346;SDS011;4712;50.698;7.164;2022-08-04T08:01:26;4.60;;;1.80;;
9346;SDS011;4712;50.698;7.164;2022-08-04T08:03:55;10.60;;;2.20;;
9346;SDS011;4712;50.698;7.164;2022-08-04T08:06:21;2.92;;;1.88;;
9346;SDS011;4712;50.698;7.164;2022-08-04T08:08:46;5.65;;;2.13;;
9346;SDS011;4712;50.698;7.164;2022-08-04T08:11:11;5.40;;;2.17;;
9346;SDS011;4712;50.698;7.164;2022-08-04T08:13:37;7.28;;;2.05;;
9346;SDS011;4712;50.698;7.164;2022-08-04T08:16:02;5.25;;;1.90;;
9346;SDS011;4712;50.698;7.164;2022-08-04T08:18:28;6.97;;;2.38;;
9346;SDS011;4712;50.698;7.164;2022-08-04T08:20:53;6.00;;;1.90;;
9346;SDS011;4712;50.698;7.164;2022-08-04T08:23:19;9.38;;;2.15;;
9346;SDS011;4712;50.698;7.164;2022-08-04T08:25:44;4.43;;;1.80;;
9346;SDS011;4712;50.698;7.164;2022-08-04T08:28:09;2.87;;;1.60;;
9346;SDS011;4712;50.698;7.164;2022-08-04T08:30:35;3.42;;;1.85;;
9346;SDS011;4712;50.698;7.164;2022-08-04T08:33:01;5.95;;;1.88;;
9346;SDS011;4712;50.698;7.164;2022-08-04T08:35:27;5.03;;;1.80;;
9346;SDS011;4712;50.698;7.164;2022-08-04T08:37:56;6.40;;;1.55;;
9346;SDS011;4712;50.698;7.164;2022-08-04T08:43:23;3.63;;;1.95;;
9346;SDS011;4712;50.698;7.164;2022-08-04T09:00:59;10.88;;;2.15;;
9346;SDS011;4712;50.698;7.164;2022-08-04T09:08:40;6.18;;;1.90;;
9346;SDS011;4712;50.698;7.164;2022-08-04T09:11:12;8.45;;;2.50;;
9346;SDS011;4712;50.698;7.164;2022-08-04T09:13:47;6.22;;;1.95;;
9346;SDS011;4712;50.698;7.164;2022-08-04T09:16:18;5.00;;;1.70;;
9346;SDS011;4712;50.698;7.164;2022-08-04T09:18:51;6.60;;;1.80;;
9346;SDS011;4712;50.698;7.164;2022-08-04T09:23:48;8.32;;;1.80;;
9346;SDS011;4712;50.698;7.164;2022-08-04T09:26:29;6.50;;;1.77;;
9346;SDS011;4712;50.698;7.164;2022-08-04T09:29:07;2.55;;;1.58;;
9346;SDS011;4712;50.698;7.164;2022-08-04T09:31:36;2.78;;;1.33;;
9346;SDS011;4712;50.698;7.164;2022-08-04T09:34:06;5.55;;;1.63;;
9346;SDS011;4712;50.698;7.164;2022-08-04T09:36:38;5.97;;;1.60;;
9346;SDS011;4712;50.698;7.164;2022-08-04T09:39:07;3.45;;;1.27;;
9346;SDS011;4712;50.698;7.164;2022-08-04T09:46:46;6.07;;;1.48;;
9346;SDS011;4712;50.698;7.164;2022-08-04T09:49:20;5.95;;;1.52;;
9346;SDS011;4712;50.698;7.164;2022-08-04T09:54:20;2.50;;;1.05;;
9346;SDS011;4712;50.698;7.164;2022-08-04T09:56:59;3.38;;;1.50;;
9346;SDS011;4712;50.698;7.164;2022-08-04T10:02:02;5.28;;;1.38;;
9346;SDS011;4712;50.698;7.164;2022-08-04T10:04:31;2.22;;;1.30;;
9346;SDS011;4712;50.698;7.164;2022-08-04T10:07:08;7.32;;;1.38;;
9346;SDS011;4712;50.698;7.164;2022-08-04T10:09:56;5.75;;;1.23;;
9346;SDS011;4712;50.698;7.164;2022-08-04T10:12:29;2.45;;;1.02;;
9346;SDS011;4712;50.698;7.164;2022-08-04T10:17:32;2.10;;;0.90;;
9346;SDS011;4712;50.698;7.164;2022-08-04T10:20:09;4.72;;;1.60;;
9346;SDS011;4712;50.698;7.164;2022-08-04T10:22:40;3.53;;;1.17;;
9346;SDS011;4712;50.698;7.164;2022-08-04T10:25:12;2.85;;;1.08;;
9346;SDS011;4712;50.698;7.164;2022-08-04T10:27:43;2.22;;;1.17;;
9346;SDS011;4712;50.698;7.164;2022-08-04T10:30:09;4.90;;;1.40;;
9346;SDS011;4712;50.698;7.164;2022-08-04T10:32:43;2.67;;;1.20;;
9346;SDS011;4712;50.698;7.164;2022-08-04T10:35:13;3.85;;;1.00;;
9346;SDS011;4712;50.698;7.164;2022-08-04T10:45:39;3.40;;;1.00;;
9346;SDS011;4712;50.698;7.164;2022-08-04T10:48:11;8.50;;;1.25;;
9346;SDS011;4712;50.698;7.164;2022-08-04T10:50:41;2.30;;;1.10;;
9346;SDS011;4712;50.698;7.164;2022-08-04T10:53:11;6.63;;;1.23;;
9346;SDS011;4712;50.698;7.164;2022-08-04T10:55:40;5.40;;;1.38;;
9346;SDS011;4712;50.698;7.164;2022-08-04T10:58:08;3.65;;;1.02;;
9346;SDS011;4712;50.698;7.164;2022-08-04T11:00:37;4.65;;;1.20;;
9346;SDS011;4712;50.698;7.164;2022-08-04T11:05:38;3.10;;;1.50;;
9346;SDS011;4712;50.698;7.164;2022-08-04T11:08:06;5.43;;;1.52;;
9346;SDS011;4712;50.698;7.164;2022-08-04T11:10:36;7.22;;;1.13;;
9346;SDS011;4712;50.698;7.164;2022-08-04T11:13:05;2.85;;;1.30;;
9346;SDS011;4712;50.698;7.164;2022-08-04T11:15:39;1.42;;;1.05;;
9346;SDS011;4712;50.698;7.164;2022-08-04T11:18:07;7.40;;;1.08;;
9346;SDS011;4712;50.698;7.164;2022-08-04T11:20:46;2.72;;;1.20;;
9346;SDS011;4712;50.698;7.164;2022-08-04T11:23:16;2.47;;;1.00;;
9346;SDS011;4712;50.698;7.164;2022-08-04T11:30:38;2.58;;;1.00;;
9346;SDS011;4712;50.698;7.164;2022-08-04T11:35:34;4.43;;;1.17;;
9346;SDS011;4712;50.698;7.164;2022-08-04T11:38:11;9.63;;;1.33;;
9346;SDS011;4712;50.698;7.164;2022-08-04T11:40:40;4.72;;;1.05;;
9346;SDS011;4712;50.698;7.164;2022-08-04T11:43:08;6.65;;;0.90;;
9346;SDS011;4712;50.698;7.164;2022-08-04T11:45:37;3.00;;;1.02;;
9346;SDS011;4712;50.698;7.164;2022-08-04T11:48:27;4.43;;;0.90;;
9346;SDS011;4712;50.698;7.164;2022-08-04T11:50:54;3.17;;;1.00;;
9346;SDS011;4712;50.698;7.164;2022-08-04T11:53:22;7.75;;;1.75;;
9346;SDS011;4712;50.698;7.164;2022-08-04T11:55:48;2.88;;;0.90;;
9346;SDS011;4712;50.698;7.164;2022-08-04T11:58:14;2.15;;;0.80;;
9346;SDS011;4712;50.698;7.164;2022-08-04T12:00:41;4.38;;;1.00;;
9346;SDS011;4712;50.698;7.164;2022-08-04T12:16:23;5.72;;;1.17;;
9346;SDS011;4712;50.698;7.164;2022-08-04T12:18:50;4.55;;;1.10;;
9346;SDS011;4712;50.698;7.164;2022-08-04T12:23:47;5.70;;;1.10;;
9346;SDS011;4712;50.698;7.164;2022-08-04T12:26:16;10.48;;;1.45;;
9346;SDS011;4712;50.698;7.164;2022-08-04T12:28:45;5.93;;;1.27;;
9346;SDS011;4712;50.698;7.164;2022-08-04T12:34:00;6.53;;;1.33;;
9346;SDS011;4712;50.698;7.164;2022-08-04T12:36:28;16.67;;;1.70;;
9346;SDS011;4712;50.698;7.164;2022-08-04T12:38:58;17.37;;;1.80;;
9346;SDS011;4712;50.698;7.164;2022-08-04T12:41:26;8.88;;;1.67;;
9346;SDS011;4712;50.698;7.164;2022-08-04T12:43:52;13.55;;;1.98;;
9346;SDS011;4712;50.698;7.164;2022-08-04T12:46:23;10.60;;;1.80;;
9346;SDS011;4712;50.698;7.164;2022-08-04T12:48:49;8.25;;;1.77;;
9346;SDS011;4712;50.698;7.164;2022-08-04T12:51:14;15.35;;;2.83;;
9346;SDS011;4712;50.698;7.164;2022-08-04T12:53:41;3.72;;;1.50;;
9346;SDS011;4712;50.698;7.164;2022-08-04T12:56:10;10.32;;;1.85;;
9346;SDS011;4712;50.698;7.164;2022-08-04T12:58:36;13.27;;;1.80;;
9346;SDS011;4712;50.698;7.164;2022-08-04T13:01:03;8.00;;;2.00;;
9346;SDS011;4712;50.698;7.164;2022-08-04T13:03:29;6.90;;;2.10;;
9346;SDS011;4712;50.698;7.164;2022-08-04T13:06:00;6.80;;;1.80;;
9346;SDS011;4712;50.698;7.164;2022-08-04T13:08:26;9.25;;;1.83;;
9346;SDS011;4712;50.698;7.164;2022-08-04T13:10:52;12.80;;;1.77;;
9346;SDS011;4712;50.698;7.164;2022-08-04T13:13:23;12.93;;;1.80;;
9346;SDS011;4712;50.698;7.164;2022-08-04T13:18:21;5.85;;;1.50;;
9346;SDS011;4712;50.698;7.164;2022-08-04T13:20:46;10.57;;;1.85;;
9346;SDS011;4712;50.698;7.164;2022-08-04T13:23:13;12.93;;;1.77;;
9346;SDS011;4712;50.698;7.164;2022-08-04T13:25:39;13.93;;;2.22;;
9346;SDS011;4712;50.698;7.164;2022-08-04T13:28:07;5.55;;;1.33;;
9346;SDS011;4712;50.698;7.164;2022-08-04T13:30:36;3.33;;;1.30;;
9346;SDS011;4712;50.698;7.164;2022-08-04T13:33:02;12.45;;;1.27;;
9346;SDS011;4712;50.698;7.164;2022-08-04T13:35:28;5.23;;;1.50;;
9346;SDS011;4712;50.698;7.164;2022-08-04T13:37:54;12.07;;;1.48;;
9346;SDS011;4712;50.698;7.164;2022-08-04T13:40:20;6.93;;;1.45;;
9346;SDS011;4712;50.698;7.164;2022-08-04T13:42:46;6.63;;;1.42;;
9346;SDS011;4712;50.698;7.164;2022-08-04T13:45:12;8.38;;;1.60;;
9346;SDS011;4712;50.698;7.164;2022-08-04T13:47:38;12.57;;;1.45;;
9346;SDS011;4712;50.698;7.164;2022-08-04T13:50:23;15.88;;;1.70;;
9346;SDS011;4712;50.698;7.164;2022-08-04T13:52:52;8.85;;;1.40;;
9346;SDS011;4712;50.698;7.164;2022-08-04T13:55:18;9.10;;;1.80;;
9346;SDS011;4712;50.698;7.164;2022-08-04T13:57:44;8.43;;;2.20;;
9346;SDS011;4712;50.698;7.164;2022-08-04T14:00:11;13.30;;;1.85;;
9346;SDS011;4712;50.698;7.164;2022-08-04T14:02:39;8.25;;;1.67;;
9346;SDS011;4712;50.698;7.164;2022-08-04T14:05:20;6.07;;;1.90;;
9346;SDS011;4712;50.698;7.164;2022-08-04T14:07:46;2.50;;;1.15;;
9346;SDS011;4712;50.698;7.164;2022-08-04T14:10:14;8.48;;;1.67;;
9346;SDS011;4712;50.698;7.164;2022-08-04T14:12:43;16.70;;;1.70;;
9346;SDS011;4712;50.698;7.164;2022-08-04T14:15:17;4.60;;;1.50;;
9346;SDS011;4712;50.698;7.164;2022-08-04T14:17:53;11.50;;;1.98;;
9346;SDS011;4712;50.698;7.164;2022-08-04T14:20:18;16.03;;;1.97;;
9346;SDS011;4712;50.698;7.164;2022-08-04T14:22:43;8.83;;;1.90;;
9346;SDS011;4712;50.698;7.164;2022-08-04T14:25:09;8.27;;;1.50;;
9346;SDS011;4712;50.698;7.164;2022-08-04T14:30:26;5.93;;;1.73;;
9346;SDS011;4712;50.698;7.164;2022-08-04T14:33:11;12.95;;;1.80;;
9346;SDS011;4712;50.698;7.164;2022-08-04T14:35:36;8.02;;;1.60;;
9346;SDS011;4712;50.698;7.164;2022-08-04T14:38:04;9.25;;;1.63;;
9346;SDS011;4712;50.698;7.164;2022-08-04T14:40:31;11.18;;;2.38;;
9346;SDS011;4712;50.698;7.164;2022-08-04T14:42:57;7.70;;;2.05;;
9346;SDS011;4712;50.698;7.164;2022-08-04T14:45:27;11.30;;;1.77;;
9346;SDS011;4712;50.698;7.164;2022-08-04T14:47:53;13.93;;;2.45;;
9346;SDS011;4712;50.698;7.164;2022-08-04T14:50:18;8.03;;;1.93;;
9346;SDS011;4712;50.698;7.164;2022-08-04T14:52:44;6.03;;;1.88;;
9346;SDS011;4712;50.698;7.164;2022-08-04T14:55:19;5.60;;;1.50;;
9346;SDS011;4712;50.698;7.164;2022-08-04T14:57:44;9.30;;;1.73;;
9346;SDS011;4712;50.698;7.164;2022-08-04T15:00:10;6.78;;;1.60;;
9346;SDS011;4712;50.698;7.164;2022-08-04T15:02:36;10.48;;;2.25;;
9346;SDS011;4712;50.698;7.164;2022-08-04T15:05:02;14.07;;;2.47;;
9346;SDS011;4712;50.698;7.164;2022-08-04T15:07:28;8.48;;;1.88;;
9346;SDS011;4712;50.698;7.164;2022-08-04T15:09:53;10.10;;;1.50;;
9346;SDS011;4712;50.698;7.164;2022-08-04T15:12:19;4.22;;;1.73;;
9346;SDS011;4712;50.698;7.164;2022-08-04T15:14:44;13.17;;;1.80;;
9346;SDS011;4712;50.698;7.164;2022-08-04T15:17:09;3.47;;;1.80;;
9346;SDS011;4712;50.698;7.164;2022-08-04T15:19:35;17.50;;;2.25;;
9346;SDS011;4712;50.698;7.164;2022-08-04T15:22:01;7.03;;;2.33;;
9346;SDS011;4712;50.698;7.164;2022-08-04T15:24:26;8.65;;;2.25;;
9346;SDS011;4712;50.698;7.164;2022-08-04T15:26:51;12.50;;;2.63;;
9346;SDS011;4712;50.698;7.164;2022-08-04T15:29:26;7.63;;;2.92;;
9346;SDS011;4712;50.698;7.164;2022-08-04T15:31:52;18.85;;;2.63;;
9346;SDS011;4712;50.698;7.164;2022-08-04T15:34:18;12.77;;;2.50;;
9346;SDS011;4712;50.698;7.164;2022-08-04T15:36:50;10.75;;;2.97;;
9346;SDS011;4712;50.698;7.164;2022-08-04T15:39:27;11.63;;;3.33;;
9346;SDS011;4712;50.698;7.164;2022-08-04T15:41:57;9.88;;;2.70;;
9346;SDS011;4712;50.698;7.164;2022-08-04T15:44:35;13.55;;;2.70;;
9346;SDS011;4712;50.698;7.164;2022-08-04T15:47:11;9.52;;;3.20;;
9346;SDS011;4712;50.698;7.164;2022-08-04T15:49:37;8.52;;;2.78;;
9346;SDS011;4712;50.698;7.164;2022-08-04T15:52:07;13.85;;;2.58;;
9346;SDS011;4712;50.698;7.164;2022-08-04T15:54:32;11.50;;;2.88;;
9346;SDS011;4712;50.698;7.164;2022-08-04T15:57:00;10.55;;;2.75;;
9346;SDS011;4712;50.698;7.164;2022-08-04T16:05:27;8.48;;;2.25;;
9346;SDS011;4712;50.698;7.164;2022-08-04T16:12:55;12.68;;;2.08;;
9346;SDS011;4712;50.698;7.164;2022-08-04T16:20:50;6.40;;;2.33;;
9346;SDS011;4712;50.698;7.164;2022-08-04T16:23:28;6.07;;;1.90;;
9346;SDS011;4712;50.698;7.164;2022-08-04T16:25:55;21.13;;;2.22;;
9346;SDS011;4712;50.698;7.164;2022-08-04T16:30:58;18.05;;;2.20;;
9346;SDS011;4712;50.698;7.164;2022-08-04T16:33:27;10.90;;;2.22;;
9346;SDS011;4712;50.698;7.164;2022-08-04T16:35:54;15.90;;;2.13;;
9346;SDS011;4712;50.698;7.164;2022-08-04T16:38:19;14.63;;;1.98;;
9346;SDS011;4712;50.698;7.164;2022-08-04T16:40:44;24.50;;;2.00;;
9346;SDS011;4712;50.698;7.164;2022-08-04T16:43:17;16.20;;;2.03;;
9346;SDS011;4712;50.698;7.164;2022-08-04T16:48:10;13.67;;;1.97;;
9346;SDS011;4712;50.698;7.164;2022-08-04T16:50:46;5.60;;;2.53;;
9346;SDS011;4712;50.698;7.164;2022-08-04T16:53:12;11.32;;;2.25;;
9346;SDS011;4712;50.698;7.164;2022-08-04T16:55:38;10.70;;;3.03;;
9346;SDS011;4712;50.698;7.164;2022-08-04T16:58:03;7.75;;;2.15;;
9346;SDS011;4712;50.698;7.164;2022-08-04T17:00:32;7.63;;;2.20;;
9346;SDS011;4712;50.698;7.164;2022-08-04T17:03:00;9.00;;;2.65;;
9346;SDS011;4712;50.698;7.164;2022-08-04T17:05:26;5.30;;;2.20;;
9346;SDS011;4712;50.698;7.164;2022-08-04T17:07:52;6.00;;;2.50;;
9346;SDS011;4712;50.698;7.164;2022-08-04T17:10:18;7.35;;;2.20;;
9346;SDS011;4712;50.698;7.164;2022-08-04T17:12:43;10.75;;;2.20;;
9346;SDS011;4712;50.698;7.164;2022-08-04T17:15:22;11.07;;;2.15;;
9346;SDS011;4712;50.698;7.164;2022-08-04T17:17:47;7.20;;;1.90;;
9346;SDS011;4712;50.698;7.164;2022-08-04T17:20:12;7.80;;;2.03;;
9346;SDS011;4712;50.698;7.164;2022-08-04T17:22:38;10.38;;;2.10;;
9346;SDS011;4712;50.698;7.164;2022-08-04T17:25:03;7.78;;;2.08;;
9346;SDS011;4712;50.698;7.164;2022-08-04T17:27:29;11.88;;;2.10;;
9346;SDS011;4712;50.698;7.164;2022-08-04T17:29:55;4.67;;;1.83;;
9346;SDS011;4712;50.698;7.164;2022-08-04T17:32:20;6.93;;;2.88;;
9346;SDS011;4712;50.698;7.164;2022-08-04T17:34:46;6.57;;;1.88;;
9346;SDS011;4712;50.698;7.164;2022-08-04T17:37:12;6.35;;;2.13;;
9346;SDS011;4712;50.698;7.164;2022-08-04T17:39:37;7.37;;;1.70;;
9346;SDS011;4712;50.698;7.164;2022-08-04T17:42:02;5.97;;;2.00;;
9346;SDS011;4712;50.698;7.164;2022-08-04T17:44:34;5.83;;;1.87;;
9346;SDS011;4712;50.698;7.164;2022-08-04T17:47:05;4.17;;;2.10;;
9346;SDS011;4712;50.698;7.164;2022-08-04T17:49:31;11.77;;;2.15;;
9346;SDS011;4712;50.698;7.164;2022-08-04T17:51:57;3.58;;;1.80;;
9346;SDS011;4712;50.698;7.164;2022-08-04T17:56:51;5.13;;;2.13;;
9346;SDS011;4712;50.698;7.164;2022-08-04T18:06:57;6.40;;;2.00;;
9346;SDS011;4712;50.698;7.164;2022-08-04T18:09:56;7.50;;;1.80;;
9346;SDS011;4712;50.698;7.164;2022-08-04T18:12:26;4.78;;;1.90;;
9346;SDS011;4712;50.698;7.164;2022-08-04T18:14:53;3.95;;;1.67;;
9346;SDS011;4712;50.698;7.164;2022-08-04T18:17:38;8.00;;;2.00;;
9346;SDS011;4712;50.698;7.164;2022-08-04T18:20:13;5.05;;;2.05;;
9346;SDS011;4712;50.698;7.164;2022-08-04T18:22:39;10.82;;;2.33;;
9346;SDS011;4712;50.698;7.164;2022-08-04T18:25:08;9.43;;;2.13;;
9346;SDS011;4712;50.698;7.164;2022-08-04T18:27:34;10.43;;;2.47;;
9346;SDS011;4712;50.698;7.164;2022-08-04T18:29:59;4.07;;;1.70;;
9346;SDS011;4712;50.698;7.164;2022-08-04T18:32:26;5.10;;;1.70;;
9346;SDS011;4712;50.698;7.164;2022-08-04T18:34:52;5.95;;;1.90;;
9346;SDS011;4712;50.698;7.164;2022-08-04T18:37:18;8.20;;;2.00;;
9346;SDS011;4712;50.698;7.164;2022-08-04T18:39:43;8.00;;;2.30;;
9346;SDS011;4712;50.698;7.164;2022-08-04T18:42:08;5.23;;;2.20;;
9346;SDS011;4712;50.698;7.164;2022-08-04T18:44:33;9.20;;;2.20;;
9346;SDS011;4712;50.698;7.164;2022-08-04T18:46:59;7.22;;;2.05;;
9346;SDS011;4712;50.698;7.164;2022-08-04T18:49:25;5.63;;;2.20;;
9346;SDS011;4712;50.698;7.164;2022-08-04T18:51:51;10.85;;;2.20;;
9346;SDS011;4712;50.698;7.164;2022-08-04T18:54:16;6.65;;;2.03;;
9346;SDS011;4712;50.698;7.164;2022-08-04T18:56:41;9.45;;;2.17;;
9346;SDS011;4712;50.698;7.164;2022-08-04T18:59:06;4.10;;;2.00;;
9346;SDS011;4712;50.698;7.164;2022-08-04T19:01:32;8.05;;;2.40;;
9346;SDS011;4712;50.698;7.164;2022-08-04T19:03:57;4.93;;;2.07;;
9346;SDS011;4712;50.698;7.164;2022-08-04T19:06:22;6.10;;;1.83;;
9346;SDS011;4712;50.698;7.164;2022-08-04T19:08:47;5.25;;;2.10;;
9346;SDS011;4712;50.698;7.164;2022-08-04T19:11:13;10.50;;;2.30;;
9346;SDS011;4712;50.698;7.164;2022-08-04T19:13:38;10.50;;;2.13;;
9346;SDS011;4712;50.698;7.164;2022-08-04T19:16:03;7.82;;;1.98;;
9346;SDS011;4712;50.698;7.164;2022-08-04T19:18:29;5.63;;;2.37;;
9346;SDS011;4712;50.698;7.164;2022-08-04T19:20:56;6.15;;;2.03;;
9346;SDS011;4712;50.698;7.164;2022-08-04T19:23:21;8.27;;;2.23;;